createdAt,value
2023-09-14T00:00:47.913Z,12.12
2023-09-14T00:05:52.028Z,12.21
2023-09-14T00:10:56.520Z,12.12
2023-09-14T00:15:59.935Z,12.25
2023-09-14T00:21:04.189Z,12.14
2023-09-14T00:26:07.372Z,12.30
2023-09-14T00:31:10.505Z,12.15
2023-09-14T00:36:13.771Z,12.32
2023-09-14T00:41:16.744Z,12.29
2023-09-14T00:46:19.887Z,12.20
2023-09-14T00:51:23.215Z,12.18
2023-09-14T00:56:29.608Z,11.99
2023-09-14T01:01:36.426Z,12.05
2023-09-14T01:06:39.609Z,11.80
2023-09-14T01:11:42.846Z,11.81
2023-09-14T01:16:55.033Z,11.72
2023-09-14T01:22:21.828Z,11.80
2023-09-14T01:27:25.493Z,12.08
2023-09-14T01:32:29.289Z,12.19
2023-09-14T01:37:33.780Z,12.25
2023-09-14T01:42:38.454Z,12.31
2023-09-14T01:47:41.588Z,12.01
2023-09-14T01:52:44.731Z,12.37
2023-09-14T01:57:48.206Z,12.39
2023-09-14T02:02:53.039Z,12.49
2023-09-14T02:07:56.171Z,12.48
2023-09-14T02:12:59.354Z,12.23
2023-09-14T02:18:02.484Z,12.44
2023-09-14T02:23:05.685Z,12.58
2023-09-14T02:28:08.766Z,12.66
2023-09-14T02:33:12.000Z,12.52
2023-09-14T02:38:15.139Z,12.68
2023-09-14T02:43:19.430Z,12.71
2023-09-14T02:48:23.091Z,12.73
2023-09-14T02:53:26.081Z,12.63
2023-09-14T02:58:29.107Z,12.62
2023-09-14T03:03:33.730Z,12.70
2023-09-14T03:08:37.289Z,12.54
2023-09-14T03:13:41.096Z,12.49
2023-09-14T03:18:45.209Z,12.43
2023-09-14T03:23:48.568Z,12.39
2023-09-14T03:28:52.157Z,12.36
2023-09-14T03:33:55.609Z,12.20
2023-09-14T03:38:58.976Z,12.26
2023-09-14T03:44:07.584Z,12.22
2023-09-14T03:49:10.862Z,12.30
2023-09-14T03:54:14.908Z,12.41
2023-09-14T03:59:18.561Z,12.48
2023-09-14T04:04:21.755Z,12.39
2023-09-14T04:09:24.996Z,12.72
2023-09-14T04:14:28.643Z,12.80
2023-09-14T04:19:32.190Z,12.93
2023-09-14T04:24:35.471Z,13.02
2023-09-14T04:29:38.545Z,13.00
2023-09-14T04:34:41.634Z,12.92
2023-09-14T04:39:47.024Z,13.06
2023-09-14T04:44:52.525Z,12.94
2023-09-14T04:49:55.808Z,12.92
2023-09-14T04:54:58.974Z,12.77
2023-09-14T05:00:02.636Z,13.01
2023-09-14T05:05:07.710Z,13.32
2023-09-14T05:10:12.284Z,13.27
2023-09-14T05:15:16.046Z,13.41
2023-09-14T05:20:19.648Z,13.16
2023-09-14T05:25:22.894Z,13.40
2023-09-14T05:30:26.561Z,13.34
2023-09-14T05:35:30.663Z,13.50
2023-09-14T05:40:36.980Z,13.66
2023-09-14T05:45:43.516Z,13.78
2023-09-14T05:50:46.879Z,14.09
2023-09-14T05:55:55.258Z,14.30
2023-09-14T06:00:58.634Z,14.78
2023-09-14T06:06:02.403Z,14.91
2023-09-14T06:11:05.699Z,14.90
2023-09-14T06:16:10.310Z,15.18
2023-09-14T06:21:14.165Z,14.78
2023-09-14T06:26:17.326Z,14.72
2023-09-14T06:31:20.811Z,14.64
2023-09-14T06:36:25.076Z,14.87
2023-09-14T06:41:29.311Z,15.05
2023-09-14T06:46:40.280Z,15.00
2023-09-14T06:51:43.560Z,15.22
2023-09-14T06:56:46.787Z,15.63
2023-09-14T07:01:50.024Z,15.96
2023-09-14T07:06:53.307Z,16.06
2023-09-14T07:11:56.546Z,15.80
2023-09-14T07:16:59.854Z,16.26
2023-09-14T07:22:03.107Z,16.51
2023-09-14T07:27:06.370Z,16.45
2023-09-14T07:32:09.600Z,16.76
2023-09-14T07:37:13.405Z,16.87
2023-09-14T07:42:16.554Z,17.18
2023-09-14T07:47:19.937Z,17.17
2023-09-14T07:52:26.347Z,17.65
2023-09-14T07:57:30.732Z,18.17
2023-09-14T08:02:34.774Z,18.38
2023-09-14T08:07:38.019Z,18.86
2023-09-14T08:12:41.150Z,19.09
2023-09-14T08:17:46.090Z,19.07
2023-09-14T08:22:49.720Z,19.53
2023-09-14T08:27:52.963Z,20.42
2023-09-14T08:32:56.208Z,21.33
2023-09-14T08:37:59.488Z,22.26
2023-09-14T08:43:03.978Z,22.85
2023-09-14T08:48:07.701Z,24.12
2023-09-14T08:53:14.802Z,24.77
2023-09-14T08:58:19.826Z,25.10
2023-09-14T09:03:22.992Z,25.81
2023-09-14T09:08:27.898Z,26.66
2023-09-14T09:13:42.171Z,28.26
2023-09-14T09:19:14.664Z,29.93
2023-09-14T09:24:27.783Z,30.21
2023-09-14T09:29:31.164Z,31.54
2023-09-14T09:34:36.063Z,32.47
2023-09-14T09:39:39.325Z,33.21
2023-09-14T09:44:42.638Z,31.48
2023-09-14T09:49:46.296Z,32.12
2023-09-14T09:54:51.487Z,30.07
2023-09-14T09:59:57.192Z,28.58
2023-09-14T10:05:00.598Z,29.55
2023-09-14T10:10:04.120Z,29.30
2023-09-14T10:15:09.447Z,27.91
2023-09-14T10:20:13.121Z,26.41
2023-09-14T10:25:17.925Z,25.09
2023-09-14T10:30:22.696Z,23.62
2023-09-14T10:35:25.974Z,23.09
2023-09-14T10:40:31.233Z,22.62
2023-09-14T10:45:39.569Z,21.79
2023-09-14T10:50:43.159Z,21.04
2023-09-14T10:55:46.387Z,21.26
2023-09-14T11:01:04.818Z,21.22
2023-09-14T11:06:44.719Z,21.45
2023-09-14T11:11:53.886Z,21.26
2023-09-14T11:17:02.565Z,20.98
2023-09-14T11:22:15.184Z,20.62
2023-09-14T11:27:25.171Z,20.02
2023-09-14T11:32:31.391Z,19.26
2023-09-14T11:37:40.607Z,18.84
2023-09-14T11:53:25.273Z,18.15
2023-09-14T11:58:28.563Z,17.15
2023-09-14T12:03:32.101Z,15.65
2023-09-14T12:08:35.673Z,15.38
2023-09-14T12:13:38.906Z,14.88
2023-09-14T12:18:43.392Z,14.35
2023-09-14T12:23:52.510Z,14.42
2023-09-14T12:28:58.906Z,14.74
2023-09-14T12:34:02.493Z,14.83
2023-09-14T12:39:13.871Z,14.81
2023-09-14T12:44:18.442Z,15.11
2023-09-14T12:49:23.096Z,15.39
2023-09-14T12:54:27.363Z,15.60
2023-09-14T12:59:30.564Z,15.52
2023-09-14T13:04:37.223Z,15.88
2023-09-14T13:09:40.405Z,16.08
2023-09-14T13:14:45.589Z,16.24
2023-09-14T13:19:48.715Z,16.39
2023-09-14T13:24:51.932Z,16.46
2023-09-14T13:29:55.452Z,16.31
2023-09-14T13:34:58.802Z,16.51
2023-09-14T13:40:07.324Z,15.97
2023-09-14T13:45:10.918Z,16.20
2023-09-14T13:50:14.375Z,16.02
2023-09-14T13:55:17.906Z,15.76
2023-09-14T14:00:22.755Z,15.13
2023-09-14T14:05:25.994Z,15.39
2023-09-14T14:10:29.227Z,15.31
2023-09-14T14:15:32.728Z,15.09
2023-09-14T14:20:37.262Z,14.87
2023-09-14T14:25:40.588Z,14.85
2023-09-14T14:30:43.990Z,14.75
2023-09-14T14:35:47.117Z,14.83
2023-09-14T14:41:17.642Z,14.96
2023-09-14T14:46:13.343Z,14.96
2023-09-14T14:51:16.521Z,15.34
2023-09-14T14:56:19.600Z,15.32
2023-09-14T15:01:22.796Z,15.55
2023-09-14T15:06:28.056Z,15.54
2023-09-14T15:11:31.248Z,15.25
2023-09-14T15:16:34.578Z,15.14
2023-09-14T15:21:37.796Z,15.03
2023-09-14T15:26:41.923Z,14.95
2023-09-14T15:31:45.120Z,14.75
2023-09-14T15:36:48.508Z,14.64
2023-09-14T15:41:51.889Z,14.69
2023-09-14T15:46:55.108Z,14.66
2023-09-14T15:51:59.930Z,14.82
2023-09-14T15:57:05.182Z,14.62
2023-09-14T16:02:08.324Z,14.80
2023-09-14T16:07:11.429Z,14.82
2023-09-14T16:12:14.505Z,14.71
2023-09-14T16:17:17.660Z,14.70
2023-09-14T16:22:21.790Z,14.52
2023-09-14T16:27:24.856Z,14.46
2023-09-14T16:32:27.985Z,14.45
2023-09-14T16:37:31.212Z,14.31
2023-09-14T16:42:34.303Z,14.34
2023-09-14T16:47:37.384Z,14.19
2023-09-14T16:52:40.646Z,14.34
2023-09-14T16:57:44.026Z,14.34
2023-09-14T17:02:47.203Z,14.38
2023-09-14T17:07:50.446Z,14.25
2023-09-14T17:12:53.557Z,14.42
2023-09-14T17:17:56.731Z,14.41
2023-09-14T17:22:59.910Z,14.32
2023-09-14T17:28:03.012Z,14.25
2023-09-14T17:33:06.347Z,14.30
2023-09-14T17:38:09.778Z,14.18
2023-09-14T17:43:12.913Z,14.32
2023-09-14T17:48:16.199Z,14.31
2023-09-14T17:53:19.515Z,14.38
2023-09-14T17:58:23.108Z,14.45
2023-09-14T18:03:26.699Z,14.52
2023-09-14T18:08:29.873Z,14.45
2023-09-14T18:13:32.972Z,14.65
2023-09-14T18:18:36.087Z,14.72
2023-09-14T18:23:39.345Z,14.80
2023-09-14T18:28:42.486Z,14.70
2023-09-14T18:33:46.059Z,14.87
2023-09-14T18:38:49.571Z,14.88
2023-09-14T18:43:52.791Z,14.73
2023-09-14T18:48:55.951Z,14.89
2023-09-14T18:54:00.499Z,14.66
2023-09-14T18:59:31.422Z,14.68
2023-09-14T19:04:26.974Z,14.65
2023-09-14T19:09:30.187Z,14.63
2023-09-14T19:14:33.344Z,14.81
2023-09-14T19:19:36.386Z,14.76
2023-09-14T19:24:40.284Z,14.63
2023-09-14T19:29:43.487Z,14.62
2023-09-14T19:34:46.580Z,14.43
2023-09-14T19:39:49.765Z,14.46
2023-09-14T19:44:53.564Z,14.58
2023-09-14T19:49:57.333Z,14.63
2023-09-14T19:55:02.480Z,14.24
2023-09-14T20:00:07.479Z,14.50
2023-09-14T20:05:13.528Z,14.27
2023-09-14T20:10:16.727Z,14.11
2023-09-14T20:15:19.969Z,14.03
2023-09-14T20:20:23.187Z,13.49
2023-09-14T20:25:28.217Z,13.74
2023-09-14T20:30:31.430Z,13.61
2023-09-14T20:35:37.587Z,13.35
2023-09-14T20:40:40.807Z,13.26
2023-09-14T20:45:44.397Z,13.19
2023-09-14T20:50:47.605Z,13.23
2023-09-14T20:55:51.415Z,13.27
2023-09-14T21:00:54.728Z,13.18
2023-09-14T21:06:04.971Z,13.38
2023-09-14T21:11:08.056Z,13.49
2023-09-14T21:16:11.427Z,13.57
2023-09-14T21:21:14.621Z,13.63
2023-09-14T21:26:17.816Z,13.52
2023-09-14T21:31:21.028Z,13.59
2023-09-14T21:36:24.117Z,13.40
2023-09-14T21:41:27.256Z,13.35
2023-09-14T21:46:30.791Z,13.29
2023-09-14T21:51:33.885Z,13.05
2023-09-14T21:56:36.955Z,13.01
2023-09-14T22:01:40.191Z,12.97
2023-09-14T22:06:43.738Z,12.85
2023-09-14T22:11:46.916Z,12.77
2023-09-14T22:16:51.696Z,12.68
2023-09-14T22:21:56.700Z,12.59
2023-09-14T22:27:00.040Z,12.47
2023-09-14T22:32:04.327Z,12.40
2023-09-14T22:37:07.519Z,12.31
2023-09-14T22:42:11.264Z,11.97
2023-09-14T22:47:14.585Z,12.01
2023-09-14T22:52:17.726Z,12.19
2023-09-14T22:57:21.371Z,12.02
2023-09-14T23:02:24.493Z,12.01
2023-09-14T23:07:27.538Z,12.05
2023-09-14T23:12:30.655Z,12.13
2023-09-14T23:17:33.851Z,12.34
2023-09-14T23:22:37.016Z,12.29
2023-09-14T23:27:40.327Z,12.04
2023-09-14T23:32:43.388Z,11.95
2023-09-14T23:37:47.322Z,12.14
2023-09-14T23:42:50.453Z,12.09
2023-09-14T23:47:53.629Z,12.09
2023-09-14T23:52:57.707Z,12.06
2023-09-14T23:58:00.912Z,12.00
